Time;durP1;ratioP1;P1;durP2;ratioP2;P2;SDS_P1;SDS_P2;PMS_P1;PMS_P2;Temp;Humidity;BMP_temperature;BMP_pressure;BME280_temperature;BME280_humidity;BME280_pressure;Samples;Min_cycle;Max_cycle;Signal;HPM_P1;HPM_P2
2022/09/22 00:01:56;;;;;;;365.87;161.17;;;;;;;;;;5051674;28;20238;-54
2022/09/22 00:04:22;;;;;;;416.10;183.00;;;;;;;;;;5059405;28;20206;-54
2022/09/22 00:06:50;;;;;;;422.43;186.60;;;;;;;;;;5050527;28;20197;-54
2022/09/22 00:09:18;;;;;;;399.30;179.87;;;;;;;;;;5058086;28;20237;-54
2022/09/22 00:11:45;;;;;;;400.10;176.77;;;;;;;;;;5047655;28;20342;-54
2022/09/22 00:14:32;;;;;;;386.07;171.40;;;;;;;;;;5059631;28;20297;-54
2022/09/22 00:17:02;;;;;;;356.63;162.93;;;;;;;;;;5061727;28;20217;-54
2022/09/22 00:19:30;;;;;;;464.97;205.60;;;;;;;;;;5055857;28;20215;-54
2022/09/22 00:21:56;;;;;;;395.90;175.77;;;;;;;;;;5051729;28;20190;-54
2022/09/22 00:24:22;;;;;;;417.40;184.37;;;;;;;;;;5048724;28;20548;-54
2022/09/22 00:26:48;;;;;;;407.97;176.83;;;;;;;;;;5039329;28;20184;-54
2022/09/22 00:29:16;;;;;;;401.20;177.07;;;;;;;;;;5042818;28;20213;-54
2022/09/22 00:31:42;;;;;;;432.40;191.37;;;;;;;;;;5038745;28;20186;-54
2022/09/22 00:34:12;;;;;;;428.87;192.70;;;;;;;;;;5038430;28;20675;-54
2022/09/22 00:36:38;;;;;;;415.00;183.13;;;;;;;;;;5049060;28;20183;-54
2022/09/22 00:39:04;;;;;;;394.27;174.87;;;;;;;;;;5051120;28;20207;-54
2022/09/22 00:41:34;;;;;;;388.33;171.43;;;;;;;;;;5048536;28;20649;-54
2022/09/22 00:44:15;;;;;;;423.80;184.93;;;;;;;;;;5039658;28;20373;-54
2022/09/22 00:46:42;;;;;;;371.00;161.27;;;;;;;;;;5043799;28;20205;-54
2022/09/22 00:49:08;;;;;;;351.77;156.50;;;;;;;;;;5045954;28;20225;-54
2022/09/22 00:51:36;;;;;;;369.67;161.70;;;;;;;;;;5043017;28;20184;-54
2022/09/22 00:54:05;;;;;;;412.87;180.43;;;;;;;;;;5047508;28;20349;-54
2022/09/22 00:56:41;;;;;;;429.13;185.67;;;;;;;;;;5045110;28;20216;-54
2022/09/22 00:59:09;;;;;;;378.13;167.73;;;;;;;;;;5040144;28;20222;-54
2022/09/22 01:01:35;;;;;;;415.57;182.43;;;;;;;;;;5038159;28;20179;-54
2022/09/22 01:04:01;;;;;;;374.03;163.60;;;;;;;;;;5050686;28;20657;-53
2022/09/22 01:06:28;;;;;;;404.20;179.17;;;;;;;;;;5041156;28;20184;-56
2022/09/22 01:08:55;;;;;;;369.07;160.40;;;;;;;;;;5049715;28;20187;-56
2022/09/22 01:11:21;;;;;;;427.93;189.00;;;;;;;;;;5047106;28;20191;-54
2022/09/22 01:14:06;;;;;;;410.47;179.47;;;;;;;;;;5044311;28;20249;-54
2022/09/22 01:16:44;;;;;;;376.40;163.20;;;;;;;;;;5043221;28;20218;-54
2022/09/22 01:19:25;;;;;;;387.93;169.83;;;;;;;;;;5046688;28;20207;-54
2022/09/22 01:22:00;;;;;;;420.17;183.93;;;;;;;;;;5048807;28;20182;-54
2022/09/22 01:24:45;;;;;;;409.50;180.87;;;;;;;;;;5050372;28;20731;-54
2022/09/22 01:27:30;;;;;;;375.40;165.70;;;;;;;;;;5052135;28;20187;-54
2022/09/22 01:30:10;;;;;;;426.83;188.43;;;;;;;;;;5061248;28;20185;-54
2022/09/22 01:32:44;;;;;;;395.67;172.77;;;;;;;;;;5059963;28;20285;-54
2022/09/22 01:35:21;;;;;;;380.83;165.23;;;;;;;;;;5052614;28;20210;-54
2022/09/22 01:37:55;;;;;;;382.87;168.43;;;;;;;;;;5056795;28;20202;-54
2022/09/22 01:40:26;;;;;;;382.87;164.77;;;;;;;;;;5046227;28;20179;-54
2022/09/22 01:42:55;;;;;;;401.70;173.30;;;;;;;;;;5051828;28;20202;-54
2022/09/22 01:45:28;;;;;;;409.13;180.40;;;;;;;;;;5053141;28;20291;-54
2022/09/22 01:47:57;;;;;;;390.87;168.83;;;;;;;;;;5051183;28;20889;-54
2022/09/22 01:50:27;;;;;;;399.50;174.73;;;;;;;;;;5050788;28;20206;-54
2022/09/22 01:52:54;;;;;;;400.53;177.93;;;;;;;;;;5053058;28;20198;-54
2022/09/22 01:55:26;;;;;;;434.50;188.63;;;;;;;;;;5048096;28;20700;-54
2022/09/22 01:58:18;;;;;;;363.37;159.80;;;;;;;;;;5049271;28;20196;-54
2022/09/22 02:00:47;;;;;;;430.10;187.83;;;;;;;;;;5044203;28;20703;-54
2022/09/22 02:03:13;;;;;;;357.60;156.40;;;;;;;;;;5044557;28;20214;-54
2022/09/22 02:05:44;;;;;;;418.20;180.93;;;;;;;;;;5050714;28;20199;-54
2022/09/22 02:08:16;;;;;;;361.27;155.63;;;;;;;;;;5051200;28;20194;-54
2022/09/22 02:10:43;;;;;;;376.63;161.00;;;;;;;;;;5055312;28;20190;-54
2022/09/22 02:13:09;;;;;;;379.57;163.53;;;;;;;;;;5051603;28;20197;-54
2022/09/22 02:18:23;;;;;;;427.53;184.03;;;;;;;;;;5050287;28;20218;-54
2022/09/22 02:20:49;;;;;;;408.17;176.47;;;;;;;;;;5046015;28;20191;-54
2022/09/22 02:23:15;;;;;;;386.77;167.23;;;;;;;;;;5052273;28;20527;-54
2022/09/22 02:25:42;;;;;;;433.33;188.47;;;;;;;;;;5049772;28;20206;-54
2022/09/22 02:28:08;;;;;;;390.07;166.60;;;;;;;;;;5053310;28;20226;-54
2022/09/22 02:30:35;;;;;;;416.07;179.10;;;;;;;;;;5046494;28;20197;-54
2022/09/22 02:33:02;;;;;;;400.67;171.97;;;;;;;;;;5051793;28;20578;-54
2022/09/22 02:35:29;;;;;;;370.57;158.73;;;;;;;;;;5051496;28;20293;-56
2022/09/22 02:38:01;;;;;;;435.33;185.87;;;;;;;;;;5049840;28;20227;-54
2022/09/22 02:40:35;;;;;;;396.47;168.70;;;;;;;;;;5047478;28;20181;-56
2022/09/22 02:43:05;;;;;;;405.07;176.93;;;;;;;;;;5046269;28;20183;-56
2022/09/22 02:45:37;;;;;;;464.80;202.40;;;;;;;;;;5041437;28;20616;-56
2022/09/22 02:48:11;;;;;;;385.67;166.00;;;;;;;;;;5047592;28;20190;-56
2022/09/22 02:50:37;;;;;;;409.33;176.23;;;;;;;;;;5047359;28;20325;-56
2022/09/22 02:53:09;;;;;;;370.20;157.33;;;;;;;;;;5049059;28;20187;-56
2022/09/22 02:55:35;;;;;;;432.90;189.63;;;;;;;;;;5054375;28;20238;-56
2022/09/22 02:58:01;;;;;;;383.13;166.07;;;;;;;;;;5048309;28;20310;-56
2022/09/22 03:00:27;;;;;;;362.03;156.63;;;;;;;;;;5050284;28;20206;-56
2022/09/22 03:02:53;;;;;;;388.17;165.00;;;;;;;;;;5053093;28;20206;-56
2022/09/22 03:05:19;;;;;;;375.30;163.10;;;;;;;;;;5048399;28;20391;-56
2022/09/22 03:07:45;;;;;;;387.63;166.53;;;;;;;;;;5047256;28;20244;-56
2022/09/22 03:10:11;;;;;;;388.33;166.90;;;;;;;;;;5053482;28;20183;-56
2022/09/22 03:12:41;;;;;;;364.23;154.93;;;;;;;;;;5053562;28;20678;-56
2022/09/22 03:15:08;;;;;;;378.07;161.70;;;;;;;;;;5052867;28;20278;-56
2022/09/22 03:17:34;;;;;;;373.50;157.27;;;;;;;;;;5056395;28;20289;-54
2022/09/22 03:20:00;;;;;;;387.33;165.60;;;;;;;;;;5052575;28;20215;-54
2022/09/22 03:22:26;;;;;;;355.77;151.27;;;;;;;;;;5053101;28;20172;-56
2022/09/22 03:24:52;;;;;;;399.73;169.50;;;;;;;;;;5044482;28;20222;-54
2022/09/22 03:27:18;;;;;;;400.47;173.23;;;;;;;;;;5054693;28;20179;-54
2022/09/22 03:29:44;;;;;;;381.53;162.33;;;;;;;;;;5052745;28;20273;-54
2022/09/22 03:32:10;;;;;;;390.93;166.40;;;;;;;;;;5044970;28;20183;-54
2022/09/22 03:34:36;;;;;;;400.53;172.30;;;;;;;;;;5044934;28;20206;-54
2022/09/22 03:37:01;;;;;;;411.57;177.33;;;;;;;;;;5050612;28;20179;-54
2022/09/22 03:39:27;;;;;;;416.10;176.03;;;;;;;;;;5045386;28;20206;-54
2022/09/22 03:41:53;;;;;;;406.63;172.43;;;;;;;;;;5051208;28;20183;-54
2022/09/22 03:44:19;;;;;;;399.00;172.40;;;;;;;;;;5052967;28;20198;-54
2022/09/22 03:46:45;;;;;;;374.90;159.33;;;;;;;;;;5051900;28;20632;-54
2022/09/22 03:49:11;;;;;;;382.30;162.27;;;;;;;;;;5045665;28;20202;-54
2022/09/22 03:51:37;;;;;;;385.97;162.43;;;;;;;;;;5053486;28;20609;-54
2022/09/22 03:54:03;;;;;;;398.20;169.57;;;;;;;;;;5045370;28;20313;-54
2022/09/22 03:56:30;;;;;;;414.20;175.57;;;;;;;;;;5050948;28;20182;-54
2022/09/22 03:58:56;;;;;;;380.87;160.00;;;;;;;;;;5052860;28;20215;-56
2022/09/22 04:01:22;;;;;;;411.97;174.47;;;;;;;;;;5048125;28;20372;-56
2022/09/22 04:03:48;;;;;;;423.73;177.47;;;;;;;;;;5050611;28;20199;-56
2022/09/22 04:06:14;;;;;;;408.80;170.87;;;;;;;;;;5049985;28;20593;-54
2022/09/22 04:08:40;;;;;;;388.77;161.70;;;;;;;;;;5051951;28;20243;-54
2022/09/22 04:11:07;;;;;;;373.00;156.97;;;;;;;;;;5051133;28;20175;-54
2022/09/22 04:13:34;;;;;;;354.97;151.77;;;;;;;;;;5051196;28;20315;-54
2022/09/22 04:16:00;;;;;;;399.60;172.27;;;;;;;;;;5042904;28;20238;-54
2022/09/22 04:18:26;;;;;;;398.40;170.23;;;;;;;;;;5050741;28;20203;-54
2022/09/22 04:20:55;;;;;;;397.90;171.60;;;;;;;;;;5045736;28;20615;-54
2022/09/22 04:23:21;;;;;;;365.90;157.03;;;;;;;;;;5044382;28;20186;-54
2022/09/22 04:25:47;;;;;;;419.30;180.43;;;;;;;;;;5050685;28;20642;-56
2022/09/22 04:28:13;;;;;;;366.37;157.57;;;;;;;;;;5053247;28;20223;-56
2022/09/22 04:30:39;;;;;;;421.10;175.67;;;;;;;;;;5047132;28;20281;-56
2022/09/22 04:33:05;;;;;;;359.93;150.10;;;;;;;;;;5053715;28;20632;-56
2022/09/22 04:35:32;;;;;;;452.10;192.70;;;;;;;;;;5041836;28;20209;-54
2022/09/22 04:37:58;;;;;;;407.77;174.00;;;;;;;;;;5052496;28;20231;-54
2022/09/22 04:40:24;;;;;;;364.15;154.55;;;;;;;;;;5061006;28;20214;-53
2022/09/22 04:42:50;;;;;;;412.47;177.83;;;;;;;;;;5048533;28;20182;-53
2022/09/22 04:45:16;;;;;;;412.47;172.17;;;;;;;;;;5059919;28;20195;-53
2022/09/22 04:47:49;;;;;;;359.50;150.93;;;;;;;;;;5050188;28;20260;-53
2022/09/22 04:50:15;;;;;;;384.77;160.57;;;;;;;;;;5049621;28;20194;-53
2022/09/22 04:52:59;;;;;;;384.40;160.83;;;;;;;;;;5054734;28;20194;-53
2022/09/22 04:55:27;;;;;;;420.03;179.87;;;;;;;;;;5055343;28;20214;-53
2022/09/22 04:57:55;;;;;;;385.73;162.57;;;;;;;;;;5061684;28;20219;-53
2022/09/22 05:00:21;;;;;;;421.07;178.60;;;;;;;;;;5047068;28;20190;-53
2022/09/22 05:02:47;;;;;;;448.17;190.20;;;;;;;;;;5036979;28;20191;-53
2022/09/22 05:05:13;;;;;;;444.67;189.43;;;;;;;;;;5045848;28;20202;-53
2022/09/22 05:07:40;;;;;;;494.50;190.30;;;;;;;;;;5043076;28;20198;-53
2022/09/22 05:10:06;;;;;;;447.63;178.43;;;;;;;;;;5045909;28;20270;-53
2022/09/22 05:12:33;;;;;;;451.50;179.13;;;;;;;;;;5040243;28;20199;-53
2022/09/22 05:14:59;;;;;;;661.90;285.80;;;;;;;;;;5036862;28;20301;-54
2022/09/22 05:17:25;;;;;;;470.80;196.73;;;;;;;;;;5025677;28;20184;-56
2022/09/22 05:19:54;;;;;;;430.53;179.37;;;;;;;;;;5050688;28;20171;-56
2022/09/22 05:22:21;;;;;;;340.47;143.90;;;;;;;;;;5058665;28;20188;-55
2022/09/22 05:24:47;;;;;;;653.57;278.60;;;;;;;;;;5052022;28;20204;-55
2022/09/22 05:27:13;;;;;;;385.00;162.67;;;;;;;;;;5035939;28;20191;-55
2022/09/22 05:29:39;;;;;;;396.40;166.70;;;;;;;;;;5046226;28;20547;-55
2022/09/22 05:32:05;;;;;;;410.10;171.93;;;;;;;;;;5049895;28;20252;-55
2022/09/22 05:34:31;;;;;;;476.37;201.17;;;;;;;;;;5038201;28;20203;-53
2022/09/22 05:36:57;;;;;;;480.43;199.13;;;;;;;;;;5042971;28;20253;-53
2022/09/22 05:39:23;;;;;;;421.57;180.33;;;;;;;;;;5042867;28;20301;-53
2022/09/22 05:41:49;;;;;;;417.57;173.80;;;;;;;;;;5042003;28;20525;-53
2022/09/22 05:44:15;;;;;;;729.67;320.93;;;;;;;;;;5038069;28;20203;-53
2022/09/22 05:46:41;;;;;;;488.77;208.17;;;;;;;;;;5032543;28;20715;-53
2022/09/22 05:49:07;;;;;;;424.23;181.77;;;;;;;;;;5030338;28;22429;-51
2022/09/22 05:51:33;;;;;;;400.77;176.10;;;;;;;;;;5038978;28;20658;-51
2022/09/22 05:53:59;;;;;;;401.77;173.97;;;;;;;;;;5037828;28;20214;-50
2022/09/22 05:56:25;;;;;;;354.83;156.07;;;;;;;;;;5043800;28;20587;-51
2022/09/22 05:58:51;;;;;;;417.77;181.07;;;;;;;;;;5042998;28;20211;-53
2022/09/22 06:01:17;;;;;;;344.80;147.83;;;;;;;;;;5043308;28;20233;-53
2022/09/22 06:03:43;;;;;;;464.10;185.00;;;;;;;;;;5034548;28;20743;-52
2022/09/22 06:06:09;;;;;;;415.57;168.67;;;;;;;;;;5041914;28;20222;-53
2022/09/22 06:08:35;;;;;;;397.83;163.37;;;;;;;;;;5048323;28;20187;-53
2022/09/22 06:11:01;;;;;;;457.37;186.73;;;;;;;;;;5046698;28;20183;-53
2022/09/22 06:13:26;;;;;;;427.23;180.07;;;;;;;;;;5038166;28;20646;-53
2022/09/22 06:15:52;;;;;;;476.47;195.27;;;;;;;;;;5034955;28;20207;-53
2022/09/22 06:18:18;;;;;;;404.63;167.00;;;;;;;;;;5041278;28;20199;-53
2022/09/22 06:20:45;;;;;;;395.50;161.27;;;;;;;;;;5051712;28;20235;-53
2022/09/22 06:23:14;;;;;;;420.33;166.40;;;;;;;;;;5051403;28;20187;-53
2022/09/22 06:25:40;;;;;;;481.70;217.23;;;;;;;;;;5036333;28;20241;-53
2022/09/22 06:28:06;;;;;;;352.87;145.57;;;;;;;;;;5049313;28;20202;-53
2022/09/22 06:30:33;;;;;;;412.07;164.10;;;;;;;;;;5047532;28;20187;-53
2022/09/22 06:32:59;;;;;;;411.00;163.63;;;;;;;;;;5029623;28;20183;-53
2022/09/22 06:35:27;;;;;;;389.47;172.57;;;;;;;;;;5039650;28;20253;-53
2022/09/22 06:37:56;;;;;;;465.93;204.70;;;;;;;;;;5043238;28;20289;-53
2022/09/22 06:40:23;;;;;;;454.90;198.97;;;;;;;;;;5028273;28;20201;-53
2022/09/22 06:42:49;;;;;;;403.03;173.90;;;;;;;;;;5035126;28;20536;-53
2022/09/22 06:45:16;;;;;;;380.43;164.10;;;;;;;;;;5032656;28;20211;-53
2022/09/22 06:47:42;;;;;;;384.60;167.37;;;;;;;;;;5040417;28;20281;-53
2022/09/22 06:50:08;;;;;;;378.80;158.10;;;;;;;;;;5050151;28;20248;-53
2022/09/22 06:52:35;;;;;;;397.97;164.03;;;;;;;;;;5052793;28;20198;-53
2022/09/22 06:55:01;;;;;;;363.17;162.67;;;;;;;;;;5064287;28;20198;-53
2022/09/22 06:57:31;;;;;;;360.40;159.97;;;;;;;;;;5065078;28;20175;-53
2022/09/22 07:00:01;;;;;;;319.37;140.07;;;;;;;;;;5058657;28;20175;-53
2022/09/22 07:02:28;;;;;;;380.07;163.27;;;;;;;;;;5051688;28;20198;-53
2022/09/22 07:05:01;;;;;;;392.50;169.60;;;;;;;;;;5057802;28;20223;-53
2022/09/22 07:07:27;;;;;;;353.70;153.10;;;;;;;;;;5060244;28;20288;-53
2022/09/22 07:09:53;;;;;;;349.97;153.87;;;;;;;;;;5058635;28;20258;-53
2022/09/22 07:12:21;;;;;;;425.23;184.80;;;;;;;;;;5059201;28;20587;-53
2022/09/22 07:14:48;;;;;;;372.80;161.27;;;;;;;;;;5050481;28;20784;-53
2022/09/22 07:17:15;;;;;;;385.03;169.23;;;;;;;;;;5057270;28;20206;-53
2022/09/22 07:19:41;;;;;;;364.33;159.73;;;;;;;;;;5051211;28;20210;-53
2022/09/22 07:22:07;;;;;;;324.43;144.53;;;;;;;;;;5052904;28;20183;-53
2022/09/22 07:24:33;;;;;;;299.17;135.07;;;;;;;;;;5061007;28;20738;-53
2022/09/22 07:27:03;;;;;;;360.80;159.33;;;;;;;;;;5059283;28;20550;-53
2022/09/22 07:29:29;;;;;;;377.10;165.17;;;;;;;;;;5049907;28;20690;-53
2022/09/22 07:31:57;;;;;;;349.97;153.77;;;;;;;;;;5056158;28;20202;-53
2022/09/22 07:34:23;;;;;;;359.17;160.70;;;;;;;;;;5054100;28;20214;-53
2022/09/22 07:36:50;;;;;;;312.43;141.97;;;;;;;;;;5056162;28;20218;-53
2022/09/22 07:39:16;;;;;;;440.40;193.83;;;;;;;;;;5029292;28;20268;-53
2022/09/22 07:41:42;;;;;;;490.13;190.57;;;;;;;;;;5025030;28;20191;-53
2022/09/22 07:46:56;;;;;;;387.67;164.50;;;;;;;;;;5034284;28;20202;-53
2022/09/22 07:49:22;;;;;;;370.50;153.63;;;;;;;;;;5036240;28;20182;-53
2022/09/22 07:51:49;;;;;;;395.37;163.13;;;;;;;;;;5040702;28;20263;-53
2022/09/22 07:54:15;;;;;;;415.10;184.07;;;;;;;;;;5031440;28;20222;-53
2022/09/22 07:56:44;;;;;;;420.53;184.87;;;;;;;;;;5040707;28;20187;-53
2022/09/22 07:59:12;;;;;;;344.37;151.40;;;;;;;;;;5049273;28;20293;-53
2022/09/22 08:01:42;;;;;;;311.13;142.83;;;;;;;;;;5051272;28;20194;-53
2022/09/22 08:04:10;;;;;;;341.30;153.07;;;;;;;;;;5049627;28;20282;-53
2022/09/22 08:06:36;;;;;;;339.20;150.53;;;;;;;;;;5035218;28;20242;-53
2022/09/22 08:09:03;;;;;;;325.53;144.17;;;;;;;;;;5054554;28;20635;-53
2022/09/22 08:11:29;;;;;;;466.10;189.77;;;;;;;;;;5040619;28;20180;-53
2022/09/22 08:13:58;;;;;;;370.47;166.33;;;;;;;;;;5041488;28;20218;-53
2022/09/22 08:16:27;;;;;;;434.23;181.80;;;;;;;;;;5045336;28;20257;-53
2022/09/22 08:18:55;;;;;;;497.27;200.87;;;;;;;;;;5044830;28;20307;-53
2022/09/22 08:21:34;;;;;;;440.07;190.87;;;;;;;;;;5038844;28;21248;-53
2022/09/22 08:24:00;;;;;;;387.03;172.57;;;;;;;;;;5041491;28;20353;-53
2022/09/22 08:26:26;;;;;;;353.80;159.17;;;;;;;;;;5035797;28;20531;-53
2022/09/22 08:28:53;;;;;;;466.10;198.93;;;;;;;;;;5035660;28;20202;-53
2022/09/22 08:31:19;;;;;;;358.17;161.37;;;;;;;;;;5050686;28;20194;-53
2022/09/22 08:33:45;;;;;;;449.27;189.30;;;;;;;;;;5053957;28;20674;-53
2022/09/22 08:36:12;;;;;;;371.00;156.87;;;;;;;;;;5042160;28;20184;-53
2022/09/22 08:38:38;;;;;;;424.30;171.43;;;;;;;;;;5039273;28;20198;-53
2022/09/22 08:41:23;;;;;;;345.03;147.37;;;;;;;;;;5038319;28;20197;-53
2022/09/22 08:43:54;;;;;;;480.53;192.70;;;;;;;;;;5045233;28;20211;-53
2022/09/22 08:46:20;;;;;;;379.87;165.33;;;;;;;;;;5038721;28;20222;-53
2022/09/22 08:51:51;;;;;;;484.73;197.23;;;;;;;;;;5034881;28;20248;-53
2022/09/22 08:54:17;;;;;;;351.93;155.63;;;;;;;;;;5032852;28;20567;-53
2022/09/22 08:56:53;;;;;;;402.27;178.30;;;;;;;;;;5051510;28;20228;-53
2022/09/22 08:59:21;;;;;;;433.03;191.93;;;;;;;;;;5035682;28;20206;-53
2022/09/22 09:01:49;;;;;;;409.10;182.07;;;;;;;;;;5044421;28;20183;-53
2022/09/22 09:04:36;;;;;;;365.43;163.77;;;;;;;;;;5050898;28;20203;-53
2022/09/22 09:07:14;;;;;;;446.47;200.07;;;;;;;;;;5041192;28;20457;-53
2022/09/22 09:09:43;;;;;;;422.90;190.70;;;;;;;;;;5042616;28;20236;-56
2022/09/22 09:12:28;;;;;;;378.63;171.30;;;;;;;;;;5040973;28;20678;-53
2022/09/22 09:15:00;;;;;;;383.47;169.50;;;;;;;;;;5045091;28;20686;-53
2022/09/22 09:17:30;;;;;;;413.07;182.37;;;;;;;;;;5035905;28;20758;-54
2022/09/22 09:20:00;;;;;;;360.33;160.60;;;;;;;;;;5041305;28;20179;-53
2022/09/22 09:22:39;;;;;;;427.53;191.63;;;;;;;;;;5039312;28;20266;-53
2022/09/22 09:25:25;;;;;;;406.80;184.87;;;;;;;;;;5033063;28;20203;-54
2022/09/22 09:28:07;;;;;;;362.43;162.43;;;;;;;;;;5041932;28;20203;-52
2022/09/22 09:30:40;;;;;;;431.93;194.90;;;;;;;;;;5050502;28;20190;-53
2022/09/22 09:33:17;;;;;;;448.97;206.17;;;;;;;;;;5047274;28;22545;-53
2022/09/22 09:35:44;;;;;;;419.97;189.00;;;;;;;;;;5038877;28;20210;-53
2022/09/22 09:38:13;;;;;;;354.87;161.87;;;;;;;;;;5046801;28;20874;-53
2022/09/22 09:40:39;;;;;;;364.60;167.37;;;;;;;;;;5047101;28;20183;-52
2022/09/22 09:43:05;;;;;;;364.30;167.70;;;;;;;;;;5049485;28;20530;-53
2022/09/22 09:45:34;;;;;;;400.03;180.17;;;;;;;;;;5045522;28;20206;-52
2022/09/22 09:48:12;;;;;;;438.40;199.67;;;;;;;;;;5031213;28;20218;-53
2022/09/22 09:50:38;;;;;;;387.57;177.47;;;;;;;;;;5052430;28;20194;-52
2022/09/22 09:53:05;;;;;;;361.80;166.03;;;;;;;;;;5058627;28;20269;-52
2022/09/22 09:55:32;;;;;;;367.10;173.97;;;;;;;;;;5049940;28;20219;-53
2022/09/22 09:58:04;;;;;;;352.60;167.17;;;;;;;;;;5051322;28;20203;-53
2022/09/22 10:00:33;;;;;;;402.90;192.67;;;;;;;;;;5051979;28;20183;-53
2022/09/22 10:03:04;;;;;;;350.80;167.23;;;;;;;;;;5054752;28;20187;-52
2022/09/22 10:05:31;;;;;;;413.37;196.53;;;;;;;;;;5044818;28;20237;-53
2022/09/22 10:07:57;;;;;;;366.13;173.67;;;;;;;;;;5053061;28;20187;-53
2022/09/22 10:10:30;;;;;;;425.10;201.60;;;;;;;;;;5049760;28;20673;-53
2022/09/22 10:12:59;;;;;;;420.17;204.60;;;;;;;;;;5056021;28;20636;-53
2022/09/22 10:15:26;;;;;;;377.73;178.67;;;;;;;;;;5046693;28;20211;-53
2022/09/22 10:17:52;;;;;;;418.17;198.50;;;;;;;;;;5046723;28;20682;-52
2022/09/22 10:20:25;;;;;;;358.77;175.03;;;;;;;;;;5046318;28;20485;-53
2022/09/22 10:22:55;;;;;;;376.53;181.37;;;;;;;;;;5051604;28;20412;-53
2022/09/22 10:25:24;;;;;;;377.03;180.93;;;;;;;;;;5053672;28;20244;-52
2022/09/22 10:27:59;;;;;;;429.43;202.83;;;;;;;;;;5045418;28;20587;-52
2022/09/22 10:30:26;;;;;;;351.47;168.97;;;;;;;;;;5063178;28;20269;-52
2022/09/22 10:33:10;;;;;;;366.87;173.67;;;;;;;;;;5060971;28;20190;-52
2022/09/22 10:35:36;;;;;;;404.43;194.90;;;;;;;;;;5048370;28;20211;-53
2022/09/22 10:38:17;;;;;;;372.80;177.43;;;;;;;;;;5047088;28;20207;-52
2022/09/22 10:40:46;;;;;;;397.27;190.43;;;;;;;;;;5053249;28;21668;-53
2022/09/22 10:43:34;;;;;;;375.03;179.87;;;;;;;;;;5048486;28;20567;-52
2022/09/22 10:46:27;;;;;;;414.13;194.23;;;;;;;;;;5050194;28;20207;-52
2022/09/22 10:48:54;;;;;;;376.93;181.87;;;;;;;;;;5054323;28;20199;-53
2022/09/22 10:51:53;;;;;;;353.27;170.80;;;;;;;;;;5062161;28;20388;-52
2022/09/22 10:54:42;;;;;;;366.50;178.80;;;;;;;;;;5046755;28;20228;-53
2022/09/22 10:57:31;;;;;;;367.70;178.17;;;;;;;;;;5062188;28;20183;-53
2022/09/22 11:00:03;;;;;;;376.87;185.73;;;;;;;;;;5053415;28;20231;-52
2022/09/22 11:02:44;;;;;;;351.40;173.37;;;;;;;;;;5063230;28;20209;-52
2022/09/22 11:12:15;;;;;;;377.67;183.50;;;;;;;;;;5061755;28;20214;-53
2022/09/22 11:13:52;;;;;;;383.47;194.80;;;;;;;;;;5058786;28;20256;-53
2022/09/22 11:16:26;;;;;;;394.67;196.73;;;;;;;;;;5056994;28;20177;-53
2022/09/22 11:18:58;;;;;;;457.93;226.70;;;;;;;;;;5055337;28;20469;-53
2022/09/22 11:21:43;;;;;;;394.43;185.73;;;;;;;;;;5048201;28;20217;-52
2022/09/22 11:24:30;;;;;;;363.73;175.23;;;;;;;;;;5054244;28;20684;-53
2022/09/22 11:26:57;;;;;;;371.77;183.20;;;;;;;;;;5052312;28;20187;-53
2022/09/22 11:29:26;;;;;;;371.93;184.57;;;;;;;;;;5053291;28;20195;-53
2022/09/22 11:32:07;;;;;;;461.70;223.67;;;;;;;;;;5052927;28;28355;-52
2022/09/22 11:34:33;;;;;;;388.27;196.50;;;;;;;;;;5048522;28;20214;-53
2022/09/22 11:37:24;;;;;;;368.03;183.13;;;;;;;;;;5050785;28;20240;-53
2022/09/22 11:40:16;;;;;;;376.50;189.73;;;;;;;;;;5047332;28;20242;-53
2022/09/22 11:43:08;;;;;;;389.03;207.50;;;;;;;;;;5047924;28;20188;-52
2022/09/22 11:45:37;;;;;;;407.63;216.30;;;;;;;;;;5020860;28;20223;-52
2022/09/22 11:48:16;;;;;;;410.20;215.83;;;;;;;;;;5042795;28;20196;-52
2022/09/22 11:50:49;;;;;;;371.13;190.57;;;;;;;;;;5047519;28;20271;-52
2022/09/22 11:53:33;;;;;;;406.67;215.97;;;;;;;;;;5055149;28;20652;-52
2022/09/22 11:56:15;;;;;;;406.83;214.47;;;;;;;;;;5056622;28;20210;-51
2022/09/22 11:58:43;;;;;;;387.30;202.47;;;;;;;;;;5044628;28;20203;-52
2022/09/22 12:01:12;;;;;;;401.47;212.27;;;;;;;;;;5044385;28;20285;-52
2022/09/22 12:04:13;;;;;;;390.23;209.37;;;;;;;;;;5047939;28;20195;-52
2022/09/22 12:06:42;;;;;;;403.97;214.93;;;;;;;;;;5041878;28;20579;-52
2022/09/22 12:09:13;;;;;;;372.47;204.03;;;;;;;;;;5041045;28;20605;-52
2022/09/22 12:11:40;;;;;;;449.13;238.07;;;;;;;;;;5043251;28;20179;-52
2022/09/22 12:14:08;;;;;;;386.27;209.67;;;;;;;;;;5042571;28;20187;-51
2022/09/22 12:16:40;;;;;;;351.57;190.57;;;;;;;;;;5044375;28;20357;-52
2022/09/22 12:19:24;;;;;;;413.03;219.57;;;;;;;;;;5047356;28;20284;-53
2022/09/22 12:21:51;;;;;;;361.33;192.30;;;;;;;;;;5057324;28;20258;-53
2022/09/22 12:24:17;;;;;;;400.97;211.80;;;;;;;;;;5045622;28;20203;-52
2022/09/22 12:26:45;;;;;;;392.80;210.93;;;;;;;;;;5049972;28;20180;-52
2022/09/22 12:29:13;;;;;;;438.87;234.00;;;;;;;;;;5036800;28;20213;-53
2022/09/22 12:31:41;;;;;;;462.03;241.20;;;;;;;;;;5032540;28;20244;-51
2022/09/22 12:34:27;;;;;;;383.08;206.82;;;;;;;;;;5054764;28;20211;-52
2022/09/22 12:36:54;;;;;;;431.20;227.90;;;;;;;;;;5054948;28;20524;-51
2022/09/22 12:39:22;;;;;;;389.70;207.48;;;;;;;;;;5047402;28;20214;-53
2022/09/22 12:41:59;;;;;;;394.00;210.40;;;;;;;;;;5040248;28;20183;-53
2022/09/22 12:44:26;;;;;;;374.30;205.60;;;;;;;;;;5048597;28;20233;-53
2022/09/22 12:46:56;;;;;;;415.43;225.07;;;;;;;;;;5049277;28;20183;-51
2022/09/22 12:49:22;;;;;;;422.60;229.90;;;;;;;;;;5048633;28;20178;-52
2022/09/22 12:51:48;;;;;;;398.93;218.53;;;;;;;;;;5057544;28;20187;-52
2022/09/22 12:54:25;;;;;;;448.52;240.52;;;;;;;;;;5048211;28;20210;-53
2022/09/22 12:57:20;;;;;;;417.97;227.73;;;;;;;;;;5051688;28;20257;-52
2022/09/22 12:59:55;;;;;;;396.92;213.68;;;;;;;;;;5047200;28;20222;-52
2022/09/22 13:02:28;;;;;;;388.60;218.87;;;;;;;;;;5052764;28;20179;-52
2022/09/22 13:04:54;;;;;;;391.63;213.03;;;;;;;;;;5058112;28;20198;-52
2022/09/22 13:07:30;;;;;;;370.17;210.40;;;;;;;;;;5064687;28;20875;-52
2022/09/22 13:10:15;;;;;;;390.63;222.53;;;;;;;;;;5057666;28;20187;-52
2022/09/22 13:13:10;;;;;;;381.87;216.20;;;;;;;;;;5057633;28;20187;-52
2022/09/22 13:15:48;;;;;;;442.87;254.23;;;;;;;;;;5061620;28;20210;-53
2022/09/22 13:18:26;;;;;;;404.10;238.13;;;;;;;;;;5057581;28;20206;-52
2022/09/22 13:20:52;;;;;;;428.10;232.00;;;;;;;;;;5054334;28;20180;-52
2022/09/22 13:23:18;;;;;;;436.60;232.13;;;;;;;;;;5048148;28;20187;-52
2022/09/22 13:25:44;;;;;;;410.70;225.07;;;;;;;;;;5058198;28;20203;-52
2022/09/22 13:28:15;;;;;;;360.23;204.23;;;;;;;;;;5062111;28;20233;-53
2022/09/22 13:30:43;;;;;;;373.47;203.63;;;;;;;;;;5054423;28;20190;-52
2022/09/22 13:33:18;;;;;;;415.03;233.93;;;;;;;;;;5052581;28;20191;-53
2022/09/22 13:35:44;;;;;;;456.30;261.67;;;;;;;;;;5054734;28;20234;-53
2022/09/22 13:38:12;;;;;;;395.27;236.32;;;;;;;;;;5057377;28;20402;-54
2022/09/22 13:40:43;;;;;;;380.88;235.35;;;;;;;;;;5060538;28;20211;-53
2022/09/22 13:43:11;;;;;;;440.27;264.90;;;;;;;;;;5051406;28;23840;-53
2022/09/22 13:45:38;;;;;;;428.58;262.00;;;;;;;;;;5050289;28;20570;-53
2022/09/22 13:48:07;;;;;;;412.05;258.90;;;;;;;;;;5061523;28;20198;-53
2022/09/22 13:50:38;;;;;;;382.70;249.48;;;;;;;;;;5060605;28;20187;-53
2022/09/22 13:53:06;;;;;;;385.58;262.40;;;;;;;;;;5058340;28;20183;-52
2022/09/22 13:55:36;;;;;;;414.58;290.05;;;;;;;;;;5060724;28;20230;-53
2022/09/22 13:58:02;;;;;;;422.50;317.83;;;;;;;;;;5051950;28;20199;-54
2022/09/22 14:00:32;;;;;;;473.27;336.63;;;;;;;;;;5048048;28;20224;-56
2022/09/22 14:03:00;;;;;;;391.23;309.50;;;;;;;;;;5048229;28;20179;-54
2022/09/22 14:05:27;;;;;;;419.27;324.33;;;;;;;;;;5055728;28;20583;-53
2022/09/22 14:07:54;;;;;;;387.65;323.25;;;;;;;;;;5051075;28;20647;-54
2022/09/22 14:10:20;;;;;;;388.88;332.55;;;;;;;;;;5062867;28;20191;-54
2022/09/22 14:12:47;;;;;;;403.67;345.65;;;;;;;;;;5050321;28;20171;-54
2022/09/22 14:15:32;;;;;;;414.40;364.90;;;;;;;;;;5050895;28;20212;-54
2022/09/22 14:17:58;;;;;;;421.70;375.85;;;;;;;;;;5059493;28;20195;-53
2022/09/22 14:20:25;;;;;;;422.92;377.02;;;;;;;;;;5056070;28;20190;-56
2022/09/22 14:22:51;;;;;;;408.88;364.45;;;;;;;;;;5059163;28;20205;-54